createdAt,value
2019-03-31T00:00:22.114Z,10.8
2019-03-31T00:01:20.980Z,10.8
2019-03-31T00:02:20.254Z,10.8
2019-03-31T00:05:17.792Z,10.9
2019-03-31T00:05:48.379Z,10.9
2019-03-31T00:07:15.928Z,10.8
2019-03-31T00:08:15.313Z,10.8
2019-03-31T00:09:14.081Z,10.8
2019-03-31T00:10:13.466Z,10.8
2019-03-31T00:11:12.736Z,10.8
2019-03-31T00:12:11.501Z,10.8
2019-03-31T00:15:09.141Z,10.7
2019-03-31T00:15:39.836Z,10.7
2019-03-31T00:17:07.388Z,10.7
2019-03-31T00:20:05.166Z,10.7
2019-03-31T00:21:03.939Z,10.6
2019-03-31T00:22:03.208Z,10.6
2019-03-31T00:23:02.490Z,10.6
2019-03-31T00:24:01.662Z,10.5
2019-03-31T00:25:59.732Z,10.5
2019-03-31T00:26:30.311Z,10.5
2019-03-31T00:27:00.801Z,10.5
2019-03-31T00:27:57.979Z,10.5
2019-03-31T00:28:57.352Z,10.5
2019-03-31T00:29:56.248Z,10.4
2019-03-31T00:31:54.897Z,10.4
2019-03-31T00:32:53.765Z,10.5
2019-03-31T00:33:53.129Z,10.5
2019-03-31T00:37:49.559Z,10.4
2019-03-31T00:38:48.429Z,10.5
2019-03-31T00:39:47.874Z,10.5
2019-03-31T00:40:47.150Z,10.5
2019-03-31T00:41:17.743Z,10.5
2019-03-31T00:41:48.424Z,10.5
2019-03-31T00:42:45.274Z,10.5
2019-03-31T00:43:44.145Z,10.5
2019-03-31T00:44:43.434Z,10.4
2019-03-31T00:45:42.723Z,10.4
2019-03-31T00:46:13.330Z,10.4
2019-03-31T00:46:43.916Z,10.4
2019-03-31T00:47:40.836Z,10.4
2019-03-31T00:49:39.085Z,10.3
2019-03-31T00:52:36.726Z,10.3
2019-03-31T00:54:34.971Z,10.2
2019-03-31T00:55:34.136Z,10.2
2019-03-31T00:56:33.413Z,10.2
2019-03-31T00:57:32.230Z,10.1
2019-03-31T00:58:31.610Z,10.1
2019-03-31T01:00:29.764Z,10.1
2019-03-31T01:01:00.348Z,10.1
2019-03-31T01:01:37.551Z,10
2019-03-31T01:02:01.524Z,10
2019-03-31T01:03:27.089Z,10.1
2019-03-31T01:05:25.344Z,10.1
2019-03-31T01:08:22.980Z,10.1
2019-03-31T01:09:21.852Z,10.2
2019-03-31T01:10:21.221Z,10.2
2019-03-31T01:11:20.093Z,10.2
2019-03-31T01:11:50.775Z,10.2
2019-03-31T01:12:21.259Z,10.3
2019-03-31T01:12:51.836Z,10.3
2019-03-31T01:14:17.784Z,10.3
2019-03-31T01:15:16.854Z,10.3
2019-03-31T01:16:16.234Z,10.3
2019-03-31T01:17:18.464Z,10.3
2019-03-31T01:18:14.595Z,10.3
2019-03-31T01:20:12.767Z,10.2
2019-03-31T01:21:11.641Z,10.2
2019-03-31T01:21:42.328Z,10.2
2019-03-31T01:22:12.808Z,10.2
2019-03-31T01:22:43.397Z,10.2
2019-03-31T01:23:13.684Z,10.2
2019-03-31T01:23:44.263Z,10.2
2019-03-31T01:25:08.095Z,10.2
2019-03-31T01:26:07.366Z,10.1
2019-03-31T01:27:06.533Z,10.2
2019-03-31T01:28:05.810Z,10.1
2019-03-31T01:29:04.577Z,10.1
2019-03-31T01:31:03.224Z,10.1
2019-03-31T01:31:33.909Z,10.1
2019-03-31T01:32:04.491Z,10.1
2019-03-31T01:32:35.188Z,10.1
2019-03-31T01:33:05.675Z,10.1
2019-03-31T01:33:36.332Z,10.1
2019-03-31T01:34:06.818Z,10.1
2019-03-31T01:34:37.408Z,10.1
2019-03-31T01:35:58.816Z,10.1
2019-03-31T01:36:57.585Z,10.1
2019-03-31T01:40:54.510Z,10.1
2019-03-31T01:41:25.095Z,10.1
2019-03-31T01:41:55.773Z,10.1
2019-03-31T01:42:26.357Z,10.1
2019-03-31T01:43:51.891Z,10.1
2019-03-31T01:44:22.567Z,10.1
2019-03-31T01:44:53.250Z,10.1
2019-03-31T01:45:23.933Z,10.1
2019-03-31T01:46:49.375Z,10.1
2019-03-31T01:48:47.618Z,10.1
2019-03-31T01:50:45.874Z,10.1
2019-03-31T01:51:16.462Z,10.1
2019-03-31T01:51:47.042Z,10.2
2019-03-31T01:52:17.621Z,10.2
2019-03-31T01:52:48.361Z,10.2
2019-03-31T01:53:19.048Z,10.2
2019-03-31T01:53:49.299Z,10.1
2019-03-31T01:54:19.972Z,10.1
2019-03-31T01:54:50.656Z,10.1
2019-03-31T01:55:21.329Z,10.1
2019-03-31T01:56:40.822Z,10.1
2019-03-31T01:57:39.731Z,10
2019-03-31T01:58:39.017Z,10
2019-03-31T02:00:37.171Z,10
2019-03-31T02:01:36.601Z,10
2019-03-31T02:02:06.788Z,10
2019-03-31T02:02:37.188Z,9.9
2019-03-31T02:03:07.866Z,9.9
2019-03-31T02:03:38.467Z,9.9
2019-03-31T02:04:09.045Z,9.9
2019-03-31T02:05:33.101Z,9.8
2019-03-31T02:06:03.588Z,9.8
2019-03-31T02:07:31.135Z,9.8
2019-03-31T02:08:30.401Z,9.7
2019-03-31T02:10:28.553Z,9.7
2019-03-31T02:11:27.816Z,9.7
2019-03-31T02:12:26.684Z,9.7
2019-03-31T02:12:57.269Z,9.7
2019-03-31T02:13:27.848Z,9.7
2019-03-31T02:13:58.439Z,9.7
2019-03-31T02:14:29.112Z,9.6
2019-03-31T02:14:59.700Z,9.6
2019-03-31T02:16:23.446Z,9.6
2019-03-31T02:17:22.224Z,9.6
2019-03-31T02:18:21.642Z,9.6
2019-03-31T02:19:20.911Z,9.5
2019-03-31T02:20:19.588Z,9.5
2019-03-31T02:21:18.856Z,9.5
2019-03-31T02:22:18.240Z,9.5
2019-03-31T02:23:17.182Z,9.5
2019-03-31T02:23:47.770Z,9.5
2019-03-31T02:24:17.886Z,9.5
2019-03-31T02:24:48.468Z,9.5
2019-03-31T02:26:14.505Z,9.4
2019-03-31T02:27:13.863Z,9.4
2019-03-31T02:28:13.132Z,9.4
2019-03-31T02:29:11.995Z,9.4
2019-03-31T02:30:11.271Z,9.4
2019-03-31T02:31:10.164Z,9.4
2019-03-31T02:32:25.230Z,9.4
2019-03-31T02:33:08.618Z,9.3
2019-03-31T02:34:07.918Z,9.3
2019-03-31T02:34:38.626Z,9.3
2019-03-31T02:35:08.819Z,9.3
2019-03-31T02:35:39.529Z,9.3
2019-03-31T02:36:09.730Z,9.2
2019-03-31T02:36:40.423Z,9.2
2019-03-31T02:38:04.399Z,9.2
2019-03-31T02:39:03.605Z,9.2
2019-03-31T02:40:02.446Z,9.2
2019-03-31T02:41:01.842Z,9.1
2019-03-31T02:42:00.640Z,9.1
2019-03-31T02:43:00.053Z,9.1
2019-03-31T02:43:58.927Z,9.1
2019-03-31T02:44:29.526Z,9.1
2019-03-31T02:45:00.685Z,9
2019-03-31T02:45:30.510Z,9
2019-03-31T02:47:55.434Z,9
2019-03-31T02:48:54.845Z,9
2019-03-31T02:49:53.594Z,8.9
2019-03-31T02:50:53.010Z,8.9
2019-03-31T02:51:51.983Z,8.9
2019-03-31T02:52:51.398Z,8.9
2019-03-31T02:53:50.281Z,8.9
2019-03-31T02:54:49.601Z,8.9
2019-03-31T02:55:19.782Z,8.9
2019-03-31T02:55:50.403Z,8.9
2019-03-31T02:56:47.583Z,8.9
2019-03-31T02:57:46.909Z,8.9
2019-03-31T02:58:45.817Z,8.9
2019-03-31T02:59:45.238Z,8.9
2019-03-31T03:00:44.138Z,8.9
2019-03-31T03:01:43.081Z,8.9
2019-03-31T03:02:43.251Z,8.9
2019-03-31T03:03:41.650Z,8.9
2019-03-31T03:04:40.556Z,8.8
2019-03-31T03:05:39.532Z,8.8
2019-03-31T03:06:38.948Z,8.8
2019-03-31T03:07:37.848Z,8.8
2019-03-31T03:09:36.129Z,8.9
2019-03-31T03:10:35.151Z,8.8
2019-03-31T03:11:05.359Z,8.8
2019-03-31T03:11:35.984Z,8.8
2019-03-31T03:12:33.861Z,8.8
2019-03-31T03:13:32.762Z,8.8
2019-03-31T03:14:31.641Z,8.8
2019-03-31T03:15:30.942Z,8.8
2019-03-31T03:16:30.335Z,8.8
2019-03-31T03:17:29.228Z,8.8
2019-03-31T03:18:28.122Z,8.8
2019-03-31T03:19:27.518Z,8.8
2019-03-31T03:20:26.307Z,8.8
2019-03-31T03:20:57.128Z,8.8
2019-03-31T03:21:27.357Z,8.8
2019-03-31T03:21:57.488Z,8.8
2019-03-31T03:22:28.220Z,8.8
2019-03-31T03:22:58.439Z,8.8
2019-03-31T03:23:28.956Z,8.8
2019-03-31T03:24:23.130Z,8.8
2019-03-31T03:25:22.024Z,8.8
2019-03-31T03:26:21.450Z,8.9
2019-03-31T03:27:20.153Z,8.9
2019-03-31T03:28:19.605Z,8.9
2019-03-31T03:29:18.402Z,8.8
2019-03-31T03:30:18.371Z,8.9
2019-03-31T03:30:49.044Z,8.9
2019-03-31T03:31:19.216Z,8.9
2019-03-31T03:31:49.584Z,8.9
2019-03-31T03:32:20.229Z,8.9
2019-03-31T03:33:18.784Z,8.9
2019-03-31T03:33:21.955Z,8.9
2019-03-31T03:33:52.360Z,8.9
2019-03-31T03:34:22.916Z,8.8
2019-03-31T03:35:13.304Z,8.8
2019-03-31T03:36:12.226Z,8.8
2019-03-31T03:37:11.640Z,8.8
2019-03-31T03:38:10.546Z,8.8
2019-03-31T03:39:09.854Z,8.8
2019-03-31T03:40:08.753Z,8.8
2019-03-31T03:40:38.960Z,8.8
2019-03-31T03:41:09.257Z,8.9
2019-03-31T03:41:39.453Z,8.9
2019-03-31T03:42:10.067Z,8.9
2019-03-31T03:42:40.287Z,8.9
2019-03-31T03:43:10.306Z,8.8
2019-03-31T03:44:02.429Z,8.8
2019-03-31T03:45:04.298Z,8.8
2019-03-31T03:46:03.769Z,8.8
2019-03-31T03:47:02.686Z,8.8
2019-03-31T03:48:01.611Z,8.8
2019-03-31T03:49:59.934Z,8.8
2019-03-31T03:50:30.164Z,8.8
2019-03-31T03:51:00.785Z,8.8
2019-03-31T03:51:30.988Z,8.8
2019-03-31T03:52:01.205Z,8.8
2019-03-31T03:52:31.851Z,8.8
2019-03-31T03:53:02.180Z,8.8
2019-03-31T03:53:32.402Z,8.8
2019-03-31T03:54:55.461Z,8.7
2019-03-31T03:55:54.846Z,8.7
2019-03-31T03:56:54.069Z,8.7
2019-03-31T03:57:52.959Z,8.7
2019-03-31T03:58:51.855Z,8.7
2019-03-31T03:59:51.289Z,8.7
2019-03-31T04:00:21.539Z,8.7
2019-03-31T04:00:51.770Z,8.7
2019-03-31T04:01:22.477Z,8.7
2019-03-31T04:01:52.694Z,8.7
2019-03-31T04:02:23.341Z,8.7
2019-03-31T04:02:54.071Z,8.6
2019-03-31T04:03:31.601Z,8.6
2019-03-31T04:03:54.573Z,8.6
2019-03-31T04:04:24.892Z,8.6
2019-03-31T04:05:45.839Z,8.6
2019-03-31T04:06:45.222Z,8.6
2019-03-31T04:07:44.021Z,8.6
2019-03-31T04:08:43.434Z,8.6
2019-03-31T04:09:42.316Z,8.5
2019-03-31T04:10:12.579Z,8.5
2019-03-31T04:10:42.785Z,8.5
2019-03-31T04:11:13.019Z,8.5
2019-03-31T04:11:43.693Z,8.5
2019-03-31T04:12:13.748Z,8.5
2019-03-31T04:12:44.549Z,8.5
2019-03-31T04:13:14.745Z,8.5
2019-03-31T04:13:45.148Z,8.5
2019-03-31T04:14:15.375Z,8.5
2019-03-31T04:15:36.830Z,8.5
2019-03-31T04:16:36.232Z,8.5
2019-03-31T04:18:34.515Z,8.5
2019-03-31T04:19:33.394Z,8.4
2019-03-31T04:20:32.308Z,8.4
2019-03-31T04:21:02.460Z,8.4
2019-03-31T04:21:33.093Z,8.4
2019-03-31T04:22:03.214Z,8.4
2019-03-31T04:22:33.951Z,8.4
2019-03-31T04:23:04.170Z,8.4
2019-03-31T04:23:34.287Z,8.4
2019-03-31T04:24:04.914Z,8.4
2019-03-31T04:25:27.964Z,8.4
2019-03-31T04:26:27.269Z,8.4
2019-03-31T04:27:26.173Z,8.4
2019-03-31T04:29:24.476Z,8.4
2019-03-31T04:31:22.914Z,8.4
2019-03-31T04:31:53.025Z,8.4
2019-03-31T04:32:23.694Z,8.4
2019-03-31T04:32:53.904Z,8.4
2019-03-31T04:33:24.113Z,8.4
2019-03-31T04:33:54.644Z,8.4
2019-03-31T04:34:24.970Z,8.4
2019-03-31T04:34:55.424Z,8.4
2019-03-31T04:37:17.361Z,8.4
2019-03-31T04:38:16.769Z,8.4
2019-03-31T04:39:15.564Z,8.4
2019-03-31T04:40:14.977Z,8.4
2019-03-31T04:41:13.894Z,8.3
2019-03-31T04:42:12.779Z,8.3
2019-03-31T04:42:43.476Z,8.3
2019-03-31T04:43:14.071Z,8.3
2019-03-31T04:43:44.312Z,8.3
2019-03-31T04:44:15.000Z,8.3
2019-03-31T04:44:45.696Z,8.3
2019-03-31T04:46:09.247Z,8.3
2019-03-31T04:47:08.622Z,8.3
2019-03-31T04:48:07.530Z,8.2
2019-03-31T04:49:06.930Z,8.2
2019-03-31T04:50:05.718Z,8.2
2019-03-31T04:51:04.964Z,8.2
2019-03-31T04:52:04.261Z,8.2
2019-03-31T04:53:02.937Z,8.2
2019-03-31T04:53:33.630Z,8.2
2019-03-31T04:54:04.322Z,8.2
2019-03-31T04:54:35.019Z,8.2
2019-03-31T04:55:05.619Z,8.2
2019-03-31T04:55:36.312Z,8.2
2019-03-31T04:56:06.803Z,8.2
2019-03-31T04:56:59.634Z,8.2
2019-03-31T04:57:58.421Z,8.1
2019-03-31T04:58:57.862Z,8.1
2019-03-31T04:59:56.728Z,8.1
2019-03-31T05:00:56.124Z,8.1
2019-03-31T05:01:54.903Z,8.1
2019-03-31T05:02:54.294Z,8.1
2019-03-31T05:04:05.760Z,8.1
2019-03-31T05:04:23.520Z,8.1
2019-03-31T05:04:53.720Z,8.1
2019-03-31T05:05:51.485Z,8.1
2019-03-31T05:06:50.364Z,8.1
2019-03-31T05:07:49.646Z,8
2019-03-31T05:09:47.907Z,8.1
2019-03-31T05:10:47.191Z,8.1
2019-03-31T05:11:46.057Z,8.1
2019-03-31T05:12:45.439Z,8
2019-03-31T05:13:44.122Z,8.1
2019-03-31T05:14:43.497Z,8.1
2019-03-31T05:15:42.259Z,8.1
2019-03-31T05:16:41.536Z,8.1
2019-03-31T05:17:40.905Z,8.1
2019-03-31T05:18:39.856Z,8.1
2019-03-31T05:19:38.754Z,8.1
2019-03-31T05:20:08.958Z,8.1
2019-03-31T05:21:36.937Z,8.1
2019-03-31T05:22:36.394Z,8.1
2019-03-31T05:23:35.344Z,8.2
2019-03-31T05:24:34.622Z,8.2
2019-03-31T05:25:33.492Z,8.2
2019-03-31T05:27:31.747Z,8.2
2019-03-31T05:28:30.622Z,8.2
2019-03-31T05:29:29.800Z,8.2
2019-03-31T05:30:00.654Z,8.2
2019-03-31T05:32:27.149Z,8.2
2019-03-31T05:33:26.437Z,8.2
2019-03-31T05:34:25.236Z,8.2
2019-03-31T05:35:27.629Z,8.3
2019-03-31T05:37:22.870Z,8.3
2019-03-31T05:38:21.744Z,8.3
2019-03-31T05:39:21.115Z,8.3
2019-03-31T05:39:51.804Z,8.3
2019-03-31T05:40:22.319Z,8.3
2019-03-31T05:40:53.019Z,8.3
2019-03-31T05:42:18.075Z,8.4
2019-03-31T05:43:17.170Z,8.4
2019-03-31T05:44:16.574Z,8.4
2019-03-31T05:45:15.250Z,8.4
2019-03-31T05:46:14.540Z,8.5
2019-03-31T05:48:12.802Z,8.5
2019-03-31T05:49:12.088Z,8.5
2019-03-31T05:49:42.673Z,8.5
2019-03-31T05:50:13.359Z,8.6
2019-03-31T05:50:44.059Z,8.6
2019-03-31T05:51:14.604Z,8.6
2019-03-31T05:51:45.296Z,8.6
2019-03-31T05:53:08.229Z,8.6
2019-03-31T05:54:07.413Z,8.6
2019-03-31T05:58:03.939Z,8.8
2019-03-31T05:59:02.723Z,8.8
2019-03-31T05:59:33.409Z,8.8
2019-03-31T06:00:04.090Z,8.8
2019-03-31T06:00:34.800Z,8.8
2019-03-31T06:01:05.387Z,8.8
2019-03-31T06:01:35.996Z,8.8
2019-03-31T06:02:06.082Z,8.8
2019-03-31T06:02:36.670Z,8.8
2019-03-31T06:03:58.693Z,8.9
2019-03-31T06:04:57.565Z,8.9
2019-03-31T06:07:55.213Z,9
2019-03-31T06:10:52.159Z,9
2019-03-31T06:11:22.746Z,9
2019-03-31T06:12:50.315Z,9
2019-03-31T06:13:21.003Z,9
2019-03-31T06:13:51.677Z,9
2019-03-31T06:14:48.949Z,9.1
2019-03-31T06:15:47.718Z,9.1
2019-03-31T06:18:45.361Z,9.1
2019-03-31T06:19:16.046Z,9.1
2019-03-31T06:19:46.534Z,9.1
2019-03-31T06:20:17.120Z,9.1
2019-03-31T06:20:47.807Z,9.1
2019-03-31T06:21:18.297Z,9.1
2019-03-31T06:21:48.894Z,9.1
2019-03-31T06:22:19.487Z,9.1
2019-03-31T06:22:50.194Z,9.1
2019-03-31T06:23:20.389Z,9.1
2019-03-31T06:24:39.802Z,9.1
2019-03-31T06:25:39.185Z,9.1
2019-03-31T06:26:37.956Z,9.1
2019-03-31T06:27:37.231Z,9.1
2019-03-31T06:28:36.105Z,9.1
2019-03-31T06:29:35.382Z,9.1
2019-03-31T06:30:05.985Z,9.1
2019-03-31T06:30:36.207Z,9.1
2019-03-31T06:31:06.899Z,9.1
2019-03-31T06:31:37.578Z,9.1
2019-03-31T06:32:08.270Z,9.1
2019-03-31T06:34:31.211Z,9.1
2019-03-31T06:35:29.883Z,9.1
2019-03-31T06:36:29.261Z,9.2
2019-03-31T06:37:28.171Z,9.1
2019-03-31T06:38:27.556Z,9.2
2019-03-31T06:40:25.613Z,9.1
2019-03-31T06:40:56.218Z,9.1
2019-03-31T06:41:26.413Z,9.2
2019-03-31T06:41:57.103Z,9.2
2019-03-31T06:42:27.159Z,9.2
2019-03-31T06:42:57.748Z,9.2
2019-03-31T06:45:20.974Z,9.2
2019-03-31T06:46:20.241Z,9.2
2019-03-31T06:48:18.488Z,9.3
2019-03-31T06:49:17.766Z,9.3
2019-03-31T06:50:16.546Z,9.3
2019-03-31T06:50:47.130Z,9.3
2019-03-31T06:51:17.830Z,9.3
2019-03-31T06:51:47.894Z,9.3
2019-03-31T06:52:18.580Z,9.3
2019-03-31T06:52:49.168Z,9.3
2019-03-31T06:54:13.199Z,9.3
2019-03-31T06:55:12.572Z,9.4
2019-03-31T06:56:11.651Z,9.4
2019-03-31T06:58:09.914Z,9.4
2019-03-31T07:00:08.183Z,9.4
2019-03-31T07:01:06.964Z,9.4
2019-03-31T07:01:37.663Z,9.4
2019-03-31T07:02:07.873Z,9.4
2019-03-31T07:02:38.569Z,9.4
2019-03-31T07:04:04.524Z,9.4
2019-03-31T07:05:03.804Z,9.4
2019-03-31T07:06:02.583Z,9.4
2019-03-31T07:08:00.835Z,9.3
2019-03-31T07:09:00.204Z,9.3
2019-03-31T07:09:59.478Z,9.3
2019-03-31T07:10:58.622Z,9.3
2019-03-31T07:11:57.402Z,9.3
2019-03-31T07:12:28.090Z,9.3
2019-03-31T07:13:00.358Z,9.3
2019-03-31T07:13:29.339Z,9.3
2019-03-31T07:13:59.839Z,9.3
2019-03-31T07:14:55.085Z,9.3
2019-03-31T07:15:53.845Z,9.2
2019-03-31T07:16:53.207Z,9.2
2019-03-31T07:17:52.205Z,9.2
2019-03-31T07:18:51.583Z,9.2
2019-03-31T07:19:50.353Z,9.1
2019-03-31T07:20:49.734Z,9.1
2019-03-31T07:21:49.010Z,9.1
2019-03-31T07:22:47.772Z,9
2019-03-31T07:23:18.365Z,9
2019-03-31T07:23:49.057Z,9
2019-03-31T07:26:44.688Z,8.9
2019-03-31T07:27:43.780Z,8.9
2019-03-31T07:28:14.465Z,8.9
2019-03-31T07:28:45.156Z,8.9
2019-03-31T07:29:15.848Z,8.9
2019-03-31T07:30:40.887Z,8.9
2019-03-31T07:32:39.046Z,8.9
2019-03-31T07:33:38.446Z,8.9
2019-03-31T07:34:37.222Z,9
2019-03-31T07:35:39.544Z,9
2019-03-31T07:36:35.909Z,9
2019-03-31T07:38:40.337Z,9
2019-03-31T07:39:05.303Z,9
2019-03-31T07:39:35.823Z,9
2019-03-31T07:40:05.831Z,9
2019-03-31T07:40:35.720Z,9
2019-03-31T07:41:31.980Z,9
2019-03-31T07:42:31.063Z,9
2019-03-31T07:43:29.843Z,9
2019-03-31T07:44:28.781Z,9
2019-03-31T07:45:27.729Z,9
2019-03-31T07:46:27.053Z,8.9
2019-03-31T07:47:25.922Z,8.8
2019-03-31T07:47:56.512Z,8.8
2019-03-31T07:49:24.565Z,8.8
2019-03-31T07:49:55.190Z,8.8
2019-03-31T07:50:28.849Z,8.8
2019-03-31T07:50:56.022Z,8.8
2019-03-31T07:51:26.714Z,8.8
2019-03-31T07:52:21.454Z,8.7
2019-03-31T07:53:20.825Z,8.8
2019-03-31T07:54:20.106Z,8.7
2019-03-31T07:55:18.877Z,8.8
2019-03-31T07:56:18.061Z,8.7
2019-03-31T07:57:17.353Z,8.7
2019-03-31T07:58:16.305Z,8.7
2019-03-31T07:58:46.695Z,8.7
2019-03-31T07:59:16.984Z,8.8
2019-03-31T07:59:47.202Z,8.8
2019-03-31T08:00:17.327Z,8.8
2019-03-31T08:00:48.034Z,8.8
2019-03-31T08:01:18.534Z,8.8
2019-03-31T08:01:49.018Z,8.8
2019-03-31T08:02:19.699Z,8.7
2019-03-31T08:03:12.037Z,8.8
2019-03-31T08:04:11.327Z,8.8
2019-03-31T08:05:10.201Z,8.8
2019-03-31T08:06:09.494Z,8.7
2019-03-31T08:07:08.369Z,8.7
2019-03-31T08:08:07.641Z,8.7
2019-03-31T08:08:38.326Z,8.7
2019-03-31T08:09:09.000Z,8.6
2019-03-31T08:09:39.594Z,8.6
2019-03-31T08:10:10.187Z,8.6
2019-03-31T08:10:40.870Z,8.6
2019-03-31T08:12:04.211Z,8.6
2019-03-31T08:13:03.505Z,8.6
2019-03-31T08:14:02.386Z,8.6
2019-03-31T08:15:01.666Z,8.6
2019-03-31T08:16:00.549Z,8.6
2019-03-31T08:16:59.909Z,8.7
2019-03-31T08:17:58.791Z,8.6
2019-03-31T08:18:29.486Z,8.6
2019-03-31T08:19:00.087Z,8.6
2019-03-31T08:19:30.775Z,8.6
2019-03-31T08:20:01.203Z,8.6
2019-03-31T08:20:31.889Z,8.6
2019-03-31T08:21:02.575Z,8.6
2019-03-31T08:21:33.065Z,8.6
2019-03-31T08:22:57.727Z,8.6
2019-03-31T08:23:53.537Z,8.6
2019-03-31T08:24:52.910Z,8.6
2019-03-31T08:25:51.673Z,8.5
2019-03-31T08:26:50.947Z,8.6
2019-03-31T08:27:50.336Z,8.6
2019-03-31T08:28:21.537Z,8.6
2019-03-31T08:28:51.236Z,8.6
2019-03-31T08:29:21.441Z,8.6
2019-03-31T08:30:01.703Z,8.6
2019-03-31T08:30:22.135Z,8.6
2019-03-31T08:30:52.772Z,8.6
2019-03-31T08:31:23.460Z,8.6
2019-03-31T08:31:54.162Z,8.7
2019-03-31T08:32:24.416Z,8.7
2019-03-31T08:33:44.783Z,8.7
2019-03-31T08:34:44.061Z,8.7
2019-03-31T08:35:48.228Z,8.7
2019-03-31T08:37:41.267Z,8.7
2019-03-31T08:38:11.861Z,8.7
2019-03-31T08:38:42.579Z,8.7
2019-03-31T08:39:13.070Z,8.7
2019-03-31T08:39:43.755Z,8.7
2019-03-31T08:40:14.438Z,8.7
2019-03-31T08:40:45.129Z,8.7
2019-03-31T08:41:15.829Z,8.7
2019-03-31T08:41:46.518Z,8.7
2019-03-31T08:42:17.206Z,8.7
2019-03-31T08:43:36.239Z,8.8
2019-03-31T08:44:35.108Z,8.8
2019-03-31T08:45:34.405Z,8.8
2019-03-31T08:46:33.178Z,8.8
2019-03-31T08:47:32.544Z,8.8
2019-03-31T08:48:31.720Z,8.8
2019-03-31T08:49:02.329Z,8.8
2019-03-31T08:49:33.015Z,8.7
2019-03-31T08:50:03.611Z,8.7
2019-03-31T08:50:35.526Z,8.7
2019-03-31T08:51:04.722Z,8.7
2019-03-31T08:51:35.418Z,8.7
2019-03-31T08:52:06.013Z,8.7
2019-03-31T08:53:27.022Z,8.8
2019-03-31T08:54:26.405Z,8.8
2019-03-31T08:55:25.274Z,8.8
2019-03-31T08:56:24.552Z,8.7
2019-03-31T08:57:23.837Z,8.8
2019-03-31T08:59:21.998Z,8.7
2019-03-31T08:59:52.685Z,8.7
2019-03-31T09:00:23.282Z,8.7
2019-03-31T09:00:53.881Z,8.7
2019-03-31T09:02:19.437Z,8.7
2019-03-31T09:02:50.149Z,8.7
2019-03-31T09:03:20.781Z,8.7
2019-03-31T09:05:16.529Z,8.8
2019-03-31T09:06:15.911Z,8.8
2019-03-31T09:07:14.788Z,8.8
2019-03-31T09:08:14.059Z,8.9
2019-03-31T09:09:13.414Z,8.9
2019-03-31T09:10:12.293Z,8.9
2019-03-31T09:10:42.476Z,8.9
2019-03-31T09:11:13.246Z,8.8
2019-03-31T09:11:43.754Z,8.8
2019-03-31T09:14:08.681Z,8.8
2019-03-31T09:15:07.961Z,8.8
2019-03-31T09:17:06.227Z,8.8
2019-03-31T09:18:05.098Z,8.9
2019-03-31T09:20:03.673Z,8.9
2019-03-31T09:21:02.551Z,9
2019-03-31T09:21:32.654Z,9
2019-03-31T09:22:03.256Z,9
2019-03-31T09:22:33.940Z,9
2019-03-31T09:23:04.589Z,9
2019-03-31T09:23:59.939Z,9.1
2019-03-31T09:24:59.209Z,9.1
2019-03-31T09:25:58.094Z,9.1
2019-03-31T09:26:57.373Z,8.9
2019-03-31T09:32:52.171Z,9.1
2019-03-31T09:33:51.460Z,9
2019-03-31T09:34:50.178Z,9
2019-03-31T09:35:49.459Z,8.9
2019-03-31T09:37:47.614Z,9.1
2019-03-31T09:38:49.068Z,9.1
2019-03-31T09:46:40.123Z,9
2019-03-31T09:47:10.816Z,9
2019-03-31T09:47:41.420Z,9
2019-03-31T09:48:12.022Z,9
2019-03-31T09:50:36.389Z,9
2019-03-31T09:51:35.674Z,9.1
2019-03-31T09:52:34.550Z,9.1
2019-03-31T09:53:33.825Z,9.2
2019-03-31T09:54:33.211Z,9.1
2019-03-31T09:56:31.456Z,9.2
2019-03-31T09:57:30.336Z,9.2
2019-03-31T09:58:00.528Z,9.2
2019-03-31T09:59:28.491Z,9.2
2019-03-31T10:01:26.756Z,9.3
2019-03-31T10:02:26.036Z,9.3
2019-03-31T10:03:25.417Z,9.3
2019-03-31T10:05:23.581Z,9.3
2019-03-31T10:06:31.165Z,9.3
2019-03-31T10:07:24.393Z,9.3
2019-03-31T10:07:51.972Z,9.3
2019-03-31T10:08:23.024Z,9.3
2019-03-31T10:08:53.236Z,9.3
2019-03-31T10:12:17.571Z,9.2
2019-03-31T10:14:15.731Z,9.3
2019-03-31T10:15:14.605Z,9.2
2019-03-31T10:16:13.881Z,9.2
2019-03-31T10:19:11.528Z,9.2
2019-03-31T10:19:42.127Z,9.2
2019-03-31T10:22:08.591Z,9.2
2019-03-31T10:25:06.243Z,9.1
2019-03-31T10:26:05.422Z,9.1
2019-03-31T10:27:04.374Z,9.1
2019-03-31T10:27:34.538Z,9.1
2019-03-31T10:28:05.135Z,9.2
2019-03-31T10:28:35.858Z,9.2
2019-03-31T10:29:06.445Z,9.3
2019-03-31T10:29:37.179Z,9.3
2019-03-31T10:30:07.409Z,9.3
2019-03-31T10:30:38.102Z,9.3
2019-03-31T10:32:00.038Z,9.3
2019-03-31T10:32:59.315Z,9.3
2019-03-31T10:33:58.081Z,9.3
2019-03-31T10:34:57.351Z,9.3
2019-03-31T10:35:56.727Z,9.2
2019-03-31T10:36:56.010Z,9.2
2019-03-31T10:37:26.695Z,9.2
2019-03-31T10:37:57.387Z,9.2
2019-03-31T10:38:27.875Z,9.2
2019-03-31T10:38:58.560Z,9.3
2019-03-31T10:39:29.247Z,9.3
2019-03-31T10:39:59.829Z,9.3
2019-03-31T10:40:30.228Z,9.3
2019-03-31T10:41:00.730Z,9.4
2019-03-31T10:41:31.648Z,9.4
2019-03-31T10:42:50.459Z,9.3
2019-03-31T10:43:49.841Z,9.4
2019-03-31T10:44:48.610Z,9.4
2019-03-31T10:45:47.983Z,9.4
2019-03-31T10:46:47.170Z,9.4
2019-03-31T10:47:17.852Z,9.4
2019-03-31T10:47:48.628Z,9.4
2019-03-31T10:48:21.796Z,9.4
2019-03-31T10:48:49.492Z,9.2
2019-03-31T10:49:20.088Z,9.2
2019-03-31T10:49:50.578Z,9.1
2019-03-31T10:50:21.161Z,9.1
2019-03-31T10:50:51.741Z,9.1
2019-03-31T10:51:22.329Z,9.1
2019-03-31T10:52:41.727Z,9.1
2019-03-31T10:53:41.006Z,9
2019-03-31T10:54:40.195Z,9.1
2019-03-31T10:55:39.567Z,9.1
2019-03-31T10:56:38.344Z,9.1
2019-03-31T10:57:37.715Z,9.1
2019-03-31T10:58:08.407Z,9.1
2019-03-31T10:58:38.808Z,9
2019-03-31T10:59:09.492Z,9
2019-03-31T11:00:34.960Z,8.8
2019-03-31T11:01:05.658Z,8.8
2019-03-31T11:02:33.122Z,8.8
2019-03-31T11:03:33.581Z,8.9
2019-03-31T11:04:31.253Z,8.7
2019-03-31T11:05:30.544Z,8.6
2019-03-31T11:07:29.150Z,8.7
2019-03-31T11:08:27.941Z,8.8
2019-03-31T11:08:58.633Z,8.8
2019-03-31T11:09:29.233Z,8.8
2019-03-31T11:09:59.732Z,8.8
2019-03-31T11:10:30.408Z,8.7
2019-03-31T11:11:01.002Z,8.7
2019-03-31T11:12:24.525Z,8.7
2019-03-31T11:13:23.896Z,8.7
2019-03-31T11:15:22.155Z,8.8
2019-03-31T11:16:20.843Z,8.9
2019-03-31T11:17:20.223Z,8.9
2019-03-31T11:18:19.595Z,8.9
2019-03-31T11:19:18.474Z,8.8
2019-03-31T11:19:49.158Z,8.8
2019-03-31T11:20:19.424Z,8.8
2019-03-31T11:20:50.015Z,8.8
2019-03-31T11:21:20.657Z,8.7
2019-03-31T11:21:50.759Z,8.7
2019-03-31T11:23:15.298Z,8.6
2019-03-31T11:25:29.390Z,8.7
2019-03-31T11:26:12.360Z,8.7
2019-03-31T11:28:10.619Z,8.7
2019-03-31T11:29:10.022Z,8.6
2019-03-31T11:30:08.888Z,8.6
2019-03-31T11:30:39.384Z,8.6
2019-03-31T11:31:09.634Z,8.6
2019-03-31T11:31:39.851Z,8.6
2019-03-31T11:32:10.543Z,8.6
2019-03-31T11:33:08.273Z,8.6
2019-03-31T11:34:05.655Z,8.6
2019-03-31T11:36:03.828Z,8.5
2019-03-31T11:37:14.347Z,8.6
2019-03-31T11:37:33.306Z,8.6
2019-03-31T11:38:03.992Z,8.6
2019-03-31T11:39:01.360Z,8.6
2019-03-31T11:40:00.400Z,8.5
2019-03-31T11:40:59.297Z,8.6
2019-03-31T11:41:29.998Z,8.6
2019-03-31T11:42:00.693Z,8.6
2019-03-31T11:43:56.847Z,8.6
2019-03-31T11:45:55.112Z,8.6
2019-03-31T11:47:53.295Z,8.7
2019-03-31T11:48:52.542Z,8.8
2019-03-31T11:49:51.314Z,8.8
2019-03-31T11:50:50.692Z,8.8
2019-03-31T11:51:49.558Z,8.9
2019-03-31T11:52:48.935Z,8.9
2019-03-31T11:53:47.816Z,8.9
2019-03-31T11:54:47.096Z,8.9
2019-03-31T11:55:46.302Z,8.9
2019-03-31T11:57:44.479Z,8.8
2019-03-31T11:58:43.690Z,8.8
2019-03-31T11:59:42.593Z,8.8
2019-03-31T12:00:41.958Z,8.8
2019-03-31T12:01:40.843Z,8.8
2019-03-31T12:02:40.302Z,8.8
2019-03-31T12:05:37.339Z,8.9
2019-03-31T12:07:47.837Z,9
2019-03-31T12:08:06.478Z,9
2019-03-31T12:08:36.975Z,9
2019-03-31T12:09:34.160Z,9.1
2019-03-31T12:10:33.107Z,9.2
2019-03-31T12:11:32.496Z,9.2
2019-03-31T12:12:31.369Z,9.2
2019-03-31T12:13:30.745Z,9.2
2019-03-31T12:14:29.521Z,9.2
2019-03-31T12:15:28.804Z,9.2
2019-03-31T12:16:27.673Z,9.2
2019-03-31T12:16:58.372Z,9.2
2019-03-31T12:17:28.952Z,9.1
2019-03-31T12:17:59.668Z,9.1
2019-03-31T12:19:25.547Z,9.2
2019-03-31T12:20:24.514Z,9.2
2019-03-31T12:21:23.699Z,9.2
2019-03-31T12:23:21.952Z,9.3
2019-03-31T12:25:20.724Z,9.4
2019-03-31T12:26:18.997Z,9.4
2019-03-31T12:26:49.253Z,9.4
2019-03-31T12:27:19.845Z,9.4
2019-03-31T12:27:50.440Z,9.4
2019-03-31T12:28:21.124Z,9.5
2019-03-31T12:28:51.816Z,9.5
2019-03-31T12:30:15.758Z,9.4
2019-03-31T12:31:14.626Z,9.5
2019-03-31T12:32:14.012Z,9.6
2019-03-31T12:33:13.302Z,9.6
2019-03-31T12:34:12.075Z,9.6
2019-03-31T12:35:11.449Z,9.6
2019-03-31T12:37:09.716Z,9.7
2019-03-31T12:37:43.855Z,9.7
2019-03-31T12:38:11.040Z,9.7
2019-03-31T12:38:41.271Z,9.7
2019-03-31T12:39:11.356Z,9.8
2019-03-31T12:39:41.933Z,9.8
2019-03-31T12:41:06.094Z,10
2019-03-31T12:42:05.531Z,10
2019-03-31T12:43:04.383Z,10.1
2019-03-31T12:44:03.681Z,10.2
2019-03-31T12:45:02.493Z,10.1
2019-03-31T12:46:01.781Z,10.1
2019-03-31T12:46:31.880Z,10.1
2019-03-31T12:47:02.475Z,10.1
2019-03-31T12:47:32.670Z,10.1
2019-03-31T12:48:03.373Z,10.1
2019-03-31T12:48:33.571Z,10.1
2019-03-31T12:49:04.263Z,10.1
2019-03-31T12:49:35.016Z,10.1
2019-03-31T12:50:05.603Z,10.2
2019-03-31T12:50:36.289Z,10.2
2019-03-31T12:51:56.808Z,10.3
2019-03-31T12:52:56.015Z,10.4
2019-03-31T12:53:54.816Z,10.4
2019-03-31T12:54:54.188Z,10.4
2019-03-31T12:56:01.054Z,10.4
2019-03-31T12:56:23.708Z,10.4
2019-03-31T12:56:53.988Z,10.4